Aérodrome :
LOGIN :

S'inscrire | Disclaimer

   EN    FR    IT 

 










Légende :    VFR   VFR Marginal   IFR   IFR Intensif   IFR Très Intensif
Visi : 
Plafond : 
>= 8 km
>= 3000ft
5 à 8 km
1000 à 3000 ft
1500m à 5 km
500 à 1000 ft
800 à 1500m
200 à 500 ft
< 800m
< 200 ft
Symboles :   Orages  Brouillard  Fortes neiges  Fortes précipitations  Vent > 20 kt
SIGMETs :   Divers  Orages  Givrage  Turbulence  Onde Orograph.  Cendres Volcan.






- Altitude de l'aérodrome : 3368 ft


LSGC - Les Eplatures

DERNIER METAR :
  • 071850Z AUTO 22004KT 180V290 9999 BKN009 03/03 Q1020

METARs EXPIRÉS :
  • 071820Z AUTO 25005KT 210V310 9999 BKN007 SCT012 BKN021 04/03 Q1020
  • 071750Z AUTO 23007KT 9999 -DZ SCT006 BKN015 BKN020 04/03 Q1020
  • 071720Z AUTO 23007KT 200V260 9999 BKN004 SCT009 BKN014 04/03 Q1020
  • 071650Z AUTO 25008KT 9999 FEW009 OVC028 04/03 Q1020
  • 071620Z AUTO 25009KT 9999 -DZ BKN006 SCT011 04/04 Q1020

TAF AMD TAF LSGC
Valide du 07 à 17h jusqu'au 08 à 00h UTC


071705Z 0717/0724 24007KT 9999 SCT010 BKN025



MET'MAP, la Météo Aéronautique d'un coup d'oeil ! - Copyright ORBIFLY Décembre 2007 - Disclaimer

ORBIFLY MET'MAP TEAM :

Programmation & Développement : Alexandra Zaïnal
Sur une idée originale de : Baudouin d'Aumeries
Assistance à la programmation : Marc-Olivier Méhu
Soutien technique & logistique : Manuel Goepfert

Contact : metmap@orbifly.com




SOURCES & CREDITS :

   NOAA